»·PEaware :: N925NG KVNY-KSNA

N925NG :: KVNY-KSNA

FLIGHT INFORMATION

Flight Status: Arrived
Operator: Privately registered:
United States
More flights under this callsign
Pilot: Nuno G. (17304)
Aircraft: Unknown
(DA62)
More flights by this aircraft type
Origin: KVNY Van Nuys
United States
Destination: KSNA John Wayne-Orange Co
United States
More flights between these airports :: More routes between these airports
Route: +
File this flight plan on PilotEdge
Remarks: Coastal Route if possible please
Altitude:
(Current/Filed)
5,500ft
Speed:
(Current/Filed)
150kts
Departed: 16-Apr-18 12:24 PM
Arrived: 16-Apr-18 01:08 PM
Distance/Time
Traveled:
44nm/0:43
Distance/Time
To Go:
Arrived

Flight Plot

Page will automatically refresh every two minutes.


Map Options




Map Legend


Flown Route
Filed Route
Departure Airport
Arrival Airport
Navaid (VOR, NDB)
Fix

Horizontal Profiles

Position Reports

Time Latitude Longitude Heading Altitude Ground
Speed
16-Apr-18 12:08 34.199200 -118.490680 180 757ft 0kts
16-Apr-18 12:09 34.199200 -118.490680 180 757ft 0kts
16-Apr-18 12:10 34.199200 -118.490680 180 757ft 0kts
16-Apr-18 12:11 34.199182 -118.490676 164 757ft 0kts
16-Apr-18 12:12 34.199133 -118.490495 84 757ft 0kts
16-Apr-18 12:13 34.199133 -118.490495 84 757ft 0kts
16-Apr-18 12:14 34.199340 -118.490415 6 757ft 0kts
16-Apr-18 12:15 34.199340 -118.490415 6 757ft 0kts
16-Apr-18 12:16 34.202735 -118.490783 348 765ft 18kts
16-Apr-18 12:17 34.207788 -118.491330 354 774ft 15kts
16-Apr-18 12:18 34.213105 -118.491833 355 787ft 27kts
16-Apr-18 12:19 34.218440 -118.492332 14 796ft 11kts
16-Apr-18 12:20 34.218700 -118.492116 62 796ft 0kts
16-Apr-18 12:21 34.218700 -118.492116 62 796ft 0kts
16-Apr-18 12:22 34.218700 -118.492116 62 796ft 0kts
16-Apr-18 12:23 34.210376 -118.490395 176 857ft 86kts
16-Apr-18 12:24 34.187571 -118.490273 177 1879ft 91kts
16-Apr-18 12:25 34.163456 -118.487768 178 2540ft 119kts
16-Apr-18 12:26 34.144444 -118.510000 292 3230ft 135kts
16-Apr-18 12:27 34.179195 -118.498791 22 3530ft 176kts
16-Apr-18 12:28 34.207266 -118.531844 281 3504ft 168kts
16-Apr-18 12:29 34.218085 -118.586759 280 3501ft 169kts
16-Apr-18 12:30 34.217483 -118.642165 248 3475ft 162kts
16-Apr-18 12:31 34.188691 -118.675349 218 4058ft 130kts
16-Apr-18 12:32 34.162221 -118.701065 217 4967ft 123kts
16-Apr-18 12:33 34.134102 -118.728315 220 5472ft 143kts
16-Apr-18 12:34 34.155087 -118.754921 31 5477ft 178kts
16-Apr-18 12:35 34.165910 -118.703343 102 5453ft 171kts
16-Apr-18 12:36 34.157856 -118.647189 99 5458ft 170kts
16-Apr-18 12:37 34.178011 -118.609908 334 5472ft 175kts
16-Apr-18 12:38 34.187767 -118.659034 225 5464ft 169kts
16-Apr-18 12:39 34.156599 -118.631121 110 5433ft 181kts
16-Apr-18 12:40 34.136694 -118.577861 118 5475ft 175kts
16-Apr-18 12:41 34.109626 -118.530170 150 5483ft 172kts
16-Apr-18 12:42 34.068614 -118.501876 158 5485ft 170kts
16-Apr-18 12:43 34.026151 -118.478347 161 5483ft 166kts
16-Apr-18 12:44 33.987263 -118.458339 164 6207ft 139kts
16-Apr-18 12:45 33.952476 -118.441290 166 7127ft 135kts
16-Apr-18 12:46 33.916190 -118.422302 142 7485ft 170kts
16-Apr-18 12:47 33.885224 -118.377356 145 7488ft 181kts
16-Apr-18 12:48 33.848287 -118.339011 145 7059ft 181kts
16-Apr-18 12:49 33.813045 -118.301478 145 5945ft 166kts
16-Apr-18 12:50 33.779118 -118.265157 143 5483ft 151kts
16-Apr-18 12:51 33.749887 -118.233647 145 5469ft 137kts
16-Apr-18 12:52 33.717605 -118.207766 210 5243ft 151kts
16-Apr-18 12:53 33.694439 -118.176402 74 4321ft 178kts
16-Apr-18 12:54 33.673457 -118.134155 149 3587ft 144kts
16-Apr-18 12:55 33.644277 -118.104648 105 3453ft 143kts
16-Apr-18 12:56 33.659789 -118.056532 65 3229ft 171kts
16-Apr-18 12:57 33.692672 -118.014698 34 2550ft 181kts
16-Apr-18 12:58 33.723970 -117.971813 76 1855ft 175kts
16-Apr-18 12:59 33.733659 -117.916520 89 1472ft 153kts
16-Apr-18 13:00 33.741602 -117.873715 71 1486ft 142kts
16-Apr-18 13:01 33.766739 -117.838702 356 1484ft 140kts
16-Apr-18 13:02 33.770096 -117.867628 203 1483ft 123kts
16-Apr-18 13:03 33.741821 -117.858043 165 1203ft 90kts
16-Apr-18 13:04 33.718570 -117.850456 181 878ft 80kts
16-Apr-18 13:05 33.697387 -117.854949 207 522ft 77kts
16-Apr-18 13:06 33.679768 -117.866277 209 66ft 70kts
16-Apr-18 13:07 33.674259 -117.870859 305 60ft 0kts
16-Apr-18 13:08 33.675096 -117.871324 306 60ft 0kts

Navigation Log

Ident Type
1. KVNY Airport
2. KSNA Airport